createdAt,value
2018-11-12T00:00:09.702Z,5.40
2018-11-12T00:01:09.732Z,10.20
2018-11-12T00:02:09.760Z,13.70
2018-11-12T00:03:09.790Z,5.50
2018-11-12T00:04:09.817Z,6.50
2018-11-12T00:05:09.847Z,6.90
2018-11-12T00:06:09.875Z,12.20
2018-11-12T00:07:09.904Z,7.90
2018-11-12T00:08:09.932Z,9.50
2018-11-12T00:09:09.962Z,8.00
2018-11-12T00:10:09.991Z,9.90
2018-11-12T00:11:10.020Z,6.80
2018-11-12T00:12:10.047Z,4.80
2018-11-12T00:13:10.078Z,6.60
2018-11-12T00:14:10.105Z,5.00
2018-11-12T00:15:10.134Z,11.10
2018-11-12T00:16:10.162Z,8.90
2018-11-12T00:17:10.191Z,7.90
2018-11-12T00:18:10.221Z,5.00
2018-11-12T00:19:10.250Z,6.90
2018-11-12T00:20:10.280Z,5.30
2018-11-12T00:21:10.308Z,5.40
2018-11-12T00:22:10.340Z,6.40
2018-11-12T00:23:10.867Z,4.90
2018-11-12T00:24:10.394Z,6.40
2018-11-12T00:25:10.422Z,6.70
2018-11-12T00:26:10.451Z,9.20
2018-11-12T00:27:10.480Z,5.30
2018-11-12T00:28:10.510Z,4.30
2018-11-12T00:29:10.538Z,4.40
2018-11-12T00:30:10.572Z,5.10
2018-11-12T00:31:10.600Z,3.60
2018-11-12T00:32:10.624Z,10.30
2018-11-12T00:33:10.654Z,5.90
2018-11-12T00:34:10.684Z,7.50
2018-11-12T00:35:10.713Z,2.50
2018-11-12T00:36:10.741Z,6.70
2018-11-12T00:37:10.772Z,2.70
2018-11-12T00:38:10.800Z,2.80
2018-11-12T00:39:10.834Z,3.60
2018-11-12T00:40:10.859Z,7.20
2018-11-12T00:41:10.889Z,3.60
2018-11-12T00:42:10.917Z,2.70
2018-11-12T00:43:10.954Z,2.90
2018-11-12T00:44:10.976Z,4.40
2018-11-12T00:45:11.007Z,5.90
2018-11-12T00:46:11.036Z,5.90
2018-11-12T00:47:11.064Z,6.40
2018-11-12T00:48:11.095Z,6.00
2018-11-12T00:49:11.140Z,3.30
2018-11-12T00:50:11.152Z,5.10
2018-11-12T00:51:11.181Z,3.00
2018-11-12T00:52:11.209Z,4.70
2018-11-12T00:53:11.240Z,4.40
2018-11-12T00:54:11.271Z,2.70
2018-11-12T00:55:11.298Z,2.80
2018-11-12T00:56:11.327Z,5.80
2018-11-12T00:57:11.357Z,6.20
2018-11-12T00:58:11.385Z,2.60
2018-11-12T00:59:11.415Z,7.90
2018-11-12T01:00:11.444Z,5.10
2018-11-12T01:01:11.475Z,4.90
2018-11-12T01:02:11.506Z,3.60
2018-11-12T01:03:11.536Z,8.20
2018-11-12T01:04:11.569Z,4.30
2018-11-12T01:05:11.591Z,4.10
2018-11-12T01:06:11.622Z,5.90
2018-11-12T01:07:11.650Z,9.20
2018-11-12T01:08:11.680Z,3.30
2018-11-12T01:09:11.709Z,8.10
2018-11-12T01:10:11.737Z,5.60
2018-11-12T01:11:11.768Z,12.70
2018-11-12T01:12:11.795Z,3.70
2018-11-12T01:13:11.825Z,6.40
2018-11-12T01:14:11.855Z,5.50
2018-11-12T01:15:11.883Z,9.40
2018-11-12T01:16:11.979Z,8.70
2018-11-12T01:17:11.941Z,7.70
2018-11-12T01:18:11.972Z,5.20
2018-11-12T01:19:12.001Z,4.60
2018-11-12T01:20:12.031Z,3.50
2018-11-12T01:21:12.057Z,5.40
2018-11-12T01:22:12.088Z,3.30
2018-11-12T01:23:12.122Z,4.20
2018-11-12T01:24:12.146Z,6.00
2018-11-12T01:25:12.174Z,4.40
2018-11-12T01:26:12.214Z,7.70
2018-11-12T01:27:12.234Z,4.00
2018-11-12T01:28:12.262Z,3.30
2018-11-12T01:29:12.291Z,6.50
2018-11-12T01:30:12.320Z,3.80
2018-11-12T01:31:12.350Z,4.20
2018-11-12T01:32:12.379Z,4.90
2018-11-12T01:33:12.411Z,6.10
2018-11-12T01:34:12.436Z,4.00
2018-11-12T01:35:12.467Z,6.30
2018-11-12T01:36:12.493Z,4.50
2018-11-12T01:37:12.523Z,4.40
2018-11-12T01:38:12.553Z,5.50
2018-11-12T01:39:12.584Z,3.80
2018-11-12T01:40:12.611Z,6.60
2018-11-12T01:41:12.644Z,9.50
2018-11-12T01:42:12.723Z,4.10
2018-11-12T01:43:12.698Z,6.90
2018-11-12T01:44:12.728Z,4.50
2018-11-12T01:45:12.755Z,2.80
2018-11-12T01:46:12.785Z,5.10
2018-11-12T01:47:12.814Z,3.60
2018-11-12T01:48:12.843Z,5.00
2018-11-12T01:49:12.873Z,4.10
2018-11-12T01:50:12.902Z,4.40
2018-11-12T01:51:12.932Z,2.90
2018-11-12T01:52:12.960Z,5.90
2018-11-12T01:53:12.988Z,4.30
2018-11-12T01:54:13.018Z,5.20
2018-11-12T01:55:13.047Z,4.00
2018-11-12T01:56:13.076Z,5.10
2018-11-12T01:57:13.105Z,6.80
2018-11-12T01:58:13.135Z,5.80
2018-11-12T01:59:13.163Z,5.10
2018-11-12T02:00:13.191Z,7.30
2018-11-12T02:01:13.232Z,6.50
2018-11-12T02:02:13.250Z,2.10
2018-11-12T02:03:13.280Z,8.20
2018-11-12T02:04:13.310Z,2.60
2018-11-12T02:05:13.338Z,3.70
2018-11-12T02:06:13.366Z,4.60
2018-11-12T02:07:13.396Z,6.00
2018-11-12T02:08:13.426Z,8.20
2018-11-12T02:09:13.459Z,7.50
2018-11-12T02:10:13.485Z,9.70
2018-11-12T02:11:13.512Z,3.10
2018-11-12T02:12:13.539Z,3.70
2018-11-12T02:13:13.568Z,2.80
2018-11-12T02:14:13.599Z,3.30
2018-11-12T02:15:13.628Z,5.10
2018-11-12T02:16:13.662Z,6.70
2018-11-12T02:17:13.688Z,9.40
2018-11-12T02:18:13.717Z,3.00
2018-11-12T02:19:13.742Z,4.40
2018-11-12T02:20:13.771Z,3.90
2018-11-12T02:21:13.799Z,5.20
2018-11-12T02:22:13.829Z,5.70
2018-11-12T02:23:13.859Z,3.50
2018-11-12T02:24:13.888Z,5.30
2018-11-12T02:25:13.916Z,6.20
2018-11-12T02:26:13.946Z,5.90
2018-11-12T02:27:13.975Z,2.90
2018-11-12T02:28:14.002Z,3.00
2018-11-12T02:29:14.034Z,5.90
2018-11-12T02:30:14.063Z,2.60
2018-11-12T02:31:14.092Z,4.40
2018-11-12T02:32:14.120Z,2.70
2018-11-12T02:33:14.306Z,2.90
2018-11-12T02:34:14.178Z,3.20
2018-11-12T02:35:14.208Z,2.90
2018-11-12T02:36:14.237Z,6.40
2018-11-12T02:37:14.267Z,5.00
2018-11-12T02:38:14.294Z,8.70
2018-11-12T02:39:14.326Z,8.60
2018-11-12T02:40:14.354Z,3.30
2018-11-12T02:41:14.384Z,2.80
2018-11-12T02:42:14.413Z,5.00
2018-11-12T02:43:14.440Z,4.60
2018-11-12T02:44:14.467Z,5.80
2018-11-12T02:45:14.507Z,2.80
2018-11-12T02:46:14.527Z,6.10
2018-11-12T02:47:14.557Z,2.90
2018-11-12T02:48:14.585Z,5.20
2018-11-12T02:49:14.619Z,4.60
2018-11-12T02:50:14.644Z,5.90
2018-11-12T02:51:14.673Z,2.80
2018-11-12T02:52:14.701Z,6.40
2018-11-12T02:53:14.733Z,7.60
2018-11-12T02:54:14.762Z,4.00
2018-11-12T02:55:14.790Z,3.70
2018-11-12T02:56:14.828Z,4.90
2018-11-12T02:57:14.861Z,4.30
2018-11-12T02:58:14.878Z,5.10
2018-11-12T02:59:14.907Z,7.00
2018-11-12T03:00:14.937Z,4.70
2018-11-12T03:01:14.966Z,3.50
2018-11-12T03:02:14.994Z,6.00
2018-11-12T03:03:15.025Z,10.50
2018-11-12T03:04:15.052Z,5.90
2018-11-12T03:05:15.081Z,4.90
2018-11-12T03:06:17.665Z,3.60
2018-11-12T03:07:15.153Z,5.90
2018-11-12T03:08:15.169Z,2.80
2018-11-12T03:09:15.198Z,3.00
2018-11-12T03:10:15.229Z,2.90
2018-11-12T03:11:15.259Z,5.70
2018-11-12T03:12:15.287Z,4.30
2018-11-12T03:13:15.317Z,3.60
2018-11-12T03:14:15.351Z,3.60
2018-11-12T03:15:15.376Z,4.70
2018-11-12T03:16:15.412Z,2.80
2018-11-12T03:17:15.437Z,6.10
2018-11-12T03:18:15.466Z,2.50
2018-11-12T03:19:15.495Z,1.80
2018-11-12T03:20:15.522Z,3.30
2018-11-12T03:21:15.552Z,6.20
2018-11-12T03:22:15.589Z,2.70
2018-11-12T03:23:15.612Z,2.80
2018-11-12T03:24:15.639Z,3.90
2018-11-12T03:25:15.670Z,1.50
2018-11-12T03:26:15.700Z,2.30
2018-11-12T03:27:15.729Z,4.40
2018-11-12T03:28:15.758Z,3.40
2018-11-12T03:29:15.788Z,3.50
2018-11-12T03:30:15.824Z,4.20
2018-11-12T03:31:15.848Z,1.80
2018-11-12T03:32:15.875Z,3.90
2018-11-12T03:33:15.905Z,2.00
2018-11-12T03:34:15.936Z,2.00
2018-11-12T03:35:15.965Z,4.00
2018-11-12T03:36:15.992Z,4.10
2018-11-12T03:37:16.026Z,3.40
2018-11-12T03:38:16.051Z,2.20
2018-11-12T03:39:16.082Z,2.20
2018-11-12T03:40:16.125Z,8.50
2018-11-12T03:41:16.141Z,2.20
2018-11-12T03:42:16.174Z,2.50
2018-11-12T03:43:16.199Z,2.20
2018-11-12T03:44:16.228Z,3.20
2018-11-12T03:45:16.257Z,6.70
2018-11-12T03:46:16.286Z,5.20
2018-11-12T03:47:16.317Z,5.10
2018-11-12T03:48:16.345Z,3.70
2018-11-12T03:49:16.374Z,6.00
2018-11-12T03:50:16.404Z,4.80
2018-11-12T03:51:16.433Z,3.00
2018-11-12T03:52:16.461Z,5.70
2018-11-12T03:53:16.490Z,3.30
2018-11-12T03:54:16.519Z,4.50
2018-11-12T03:55:16.551Z,4.10
2018-11-12T03:56:16.581Z,4.60
2018-11-12T03:57:16.607Z,5.70
2018-11-12T03:58:16.638Z,10.10
2018-11-12T03:59:16.666Z,2.50
2018-11-12T04:00:16.730Z,2.40
2018-11-12T04:01:16.724Z,2.60
2018-11-12T04:02:16.757Z,2.90
2018-11-12T04:03:16.783Z,2.90
2018-11-12T04:04:16.814Z,4.20
2018-11-12T04:05:16.841Z,4.00
2018-11-12T04:06:16.869Z,5.00
2018-11-12T04:07:16.900Z,5.10
2018-11-12T04:08:16.929Z,4.50
2018-11-12T04:09:16.957Z,3.50
2018-11-12T04:10:16.985Z,3.90
2018-11-12T04:11:17.016Z,4.50
2018-11-12T04:12:17.045Z,3.10
2018-11-12T04:13:17.076Z,2.50
2018-11-12T04:14:17.103Z,5.70
2018-11-12T04:15:17.133Z,7.50
2018-11-12T04:16:17.160Z,2.60
2018-11-12T04:17:17.189Z,3.10
2018-11-12T04:18:17.218Z,3.20
2018-11-12T04:19:17.247Z,4.90
2018-11-12T04:20:17.281Z,4.50
2018-11-12T04:21:17.309Z,6.00
2018-11-12T04:22:17.333Z,6.80
2018-11-12T04:23:17.364Z,5.30
2018-11-12T04:24:17.391Z,3.90
2018-11-12T04:25:17.420Z,5.70
2018-11-12T04:26:17.448Z,9.20
2018-11-12T04:27:17.483Z,4.10
2018-11-12T04:28:17.505Z,3.30
2018-11-12T04:29:17.534Z,3.60
2018-11-12T04:30:17.564Z,5.60
2018-11-12T04:31:17.593Z,6.30
2018-11-12T04:32:17.622Z,5.70
2018-11-12T04:33:17.650Z,4.70
2018-11-12T04:34:17.680Z,4.20
2018-11-12T04:35:17.714Z,6.10
2018-11-12T04:36:17.750Z,3.80
2018-11-12T04:37:17.766Z,3.40
2018-11-12T04:38:17.796Z,6.20
2018-11-12T04:39:17.824Z,3.40
2018-11-12T04:40:17.860Z,5.00
2018-11-12T04:41:17.880Z,2.70
2018-11-12T04:42:17.910Z,5.60
2018-11-12T04:43:17.941Z,3.70
2018-11-12T04:44:17.967Z,3.60
2018-11-12T04:45:18.003Z,7.40
2018-11-12T04:46:18.024Z,7.80
2018-11-12T04:47:18.054Z,3.90
2018-11-12T04:48:18.081Z,2.70
2018-11-12T04:49:18.110Z,8.70
2018-11-12T04:50:18.141Z,3.60
2018-11-12T04:51:18.170Z,8.40
2018-11-12T04:52:18.200Z,10.30
2018-11-12T04:53:18.224Z,2.90
2018-11-12T04:54:18.259Z,4.70
2018-11-12T04:55:18.368Z,2.70
2018-11-12T04:56:18.310Z,2.40
2018-11-12T04:57:18.339Z,5.40
2018-11-12T04:58:18.367Z,4.30
2018-11-12T04:59:18.397Z,8.10
2018-11-12T05:00:18.429Z,11.70
2018-11-12T05:01:18.453Z,7.50
2018-11-12T05:02:18.487Z,3.20
2018-11-12T05:03:18.511Z,3.60
2018-11-12T05:04:18.539Z,3.60
2018-11-12T05:05:18.569Z,5.10
2018-11-12T05:06:18.597Z,8.60
2018-11-12T05:07:18.636Z,3.20
2018-11-12T05:08:18.654Z,5.60
2018-11-12T05:09:18.681Z,3.00
2018-11-12T05:10:18.719Z,3.20
2018-11-12T05:11:18.739Z,6.00
2018-11-12T05:12:18.768Z,3.90
2018-11-12T05:13:18.796Z,4.70
2018-11-12T05:14:18.823Z,6.90
2018-11-12T05:15:18.857Z,6.70
2018-11-12T05:16:18.880Z,9.40
2018-11-12T05:17:18.908Z,3.40
2018-11-12T05:18:18.938Z,5.90
2018-11-12T05:19:18.966Z,6.10
2018-11-12T05:20:18.995Z,4.80
2018-11-12T05:21:19.023Z,3.70
2018-11-12T05:22:19.053Z,4.30
2018-11-12T05:23:19.080Z,5.20
2018-11-12T05:24:19.108Z,5.50
2018-11-12T05:25:19.137Z,6.60
2018-11-12T05:26:19.166Z,4.50
2018-11-12T05:27:19.194Z,3.30
2018-11-12T05:28:19.221Z,3.70
2018-11-12T05:29:19.249Z,4.80
2018-11-12T05:30:19.279Z,5.80
2018-11-12T05:31:19.308Z,6.20
2018-11-12T05:32:19.341Z,10.00
2018-11-12T05:33:19.364Z,4.30
2018-11-12T05:34:19.393Z,4.90
2018-11-12T05:35:19.428Z,11.00
2018-11-12T05:36:19.451Z,5.60
2018-11-12T05:37:19.478Z,6.80
2018-11-12T05:38:19.584Z,6.40
2018-11-12T05:39:19.585Z,6.60
2018-11-12T05:40:19.562Z,5.40
2018-11-12T05:41:19.591Z,5.40
2018-11-12T05:42:19.620Z,4.20
2018-11-12T05:43:19.648Z,3.50
2018-11-12T05:44:19.681Z,5.00
2018-11-12T05:45:19.703Z,3.10
2018-11-12T05:46:19.782Z,5.80
2018-11-12T05:47:19.760Z,4.40
2018-11-12T05:48:19.792Z,3.30
2018-11-12T05:49:19.816Z,10.00
2018-11-12T05:50:19.851Z,4.30
2018-11-12T05:51:19.886Z,4.50
2018-11-12T05:52:19.902Z,4.40
2018-11-12T05:53:19.929Z,4.40
2018-11-12T05:54:19.958Z,5.10
2018-11-12T05:55:19.988Z,3.90
2018-11-12T05:56:20.013Z,4.00
2018-11-12T05:57:20.043Z,3.70
2018-11-12T05:58:20.072Z,16.20
2018-11-12T05:59:20.098Z,16.60
2018-11-12T06:00:20.126Z,12.30
2018-11-12T06:01:20.155Z,13.50
2018-11-12T06:02:20.184Z,7.60
2018-11-12T06:03:20.218Z,2.80
2018-11-12T06:04:20.239Z,4.50
2018-11-12T06:05:20.268Z,4.90
2018-11-12T06:06:20.299Z,4.80
2018-11-12T06:07:20.325Z,6.20
2018-11-12T06:08:20.353Z,4.10
2018-11-12T06:09:20.385Z,16.00
2018-11-12T06:10:20.410Z,3.40
2018-11-12T06:11:20.438Z,7.70
2018-11-12T06:12:20.466Z,3.90
2018-11-12T06:13:20.494Z,14.00
2018-11-12T06:14:20.522Z,7.10
2018-11-12T06:15:20.553Z,5.40
2018-11-12T06:16:20.576Z,10.70
2018-11-12T06:17:20.606Z,13.50
2018-11-12T06:18:20.635Z,14.20
2018-11-12T06:19:20.662Z,19.10
2018-11-12T06:20:20.690Z,22.50
2018-11-12T06:21:20.720Z,17.90
2018-11-12T06:22:20.746Z,20.20
2018-11-12T06:23:20.773Z,6.30
2018-11-12T06:24:20.802Z,7.20
2018-11-12T06:25:20.829Z,4.10
2018-11-12T06:26:20.859Z,12.50
2018-11-12T06:27:20.886Z,9.10
2018-11-12T06:28:20.916Z,9.50
2018-11-12T06:29:20.943Z,12.20
2018-11-12T06:30:20.969Z,11.10
2018-11-12T06:31:21.119Z,5.10
2018-11-12T06:32:21.025Z,4.20
2018-11-12T06:33:21.054Z,5.10
2018-11-12T06:34:21.081Z,5.40
2018-11-12T06:35:21.115Z,4.90
2018-11-12T06:36:21.137Z,5.30
2018-11-12T06:37:21.165Z,7.00
2018-11-12T06:38:21.193Z,7.10
2018-11-12T06:39:21.221Z,6.90
2018-11-12T06:40:21.248Z,8.40
2018-11-12T06:41:21.326Z,4.60
2018-11-12T06:42:21.349Z,5.00
2018-11-12T06:43:21.333Z,7.00
2018-11-12T06:44:21.361Z,10.90
2018-11-12T06:45:21.387Z,11.50
2018-11-12T06:46:21.417Z,4.60
2018-11-12T06:47:21.445Z,8.50
2018-11-12T06:48:21.503Z,9.80
2018-11-12T06:49:21.498Z,5.70
2018-11-12T06:50:21.528Z,6.40
2018-11-12T06:51:21.555Z,5.90
2018-11-12T06:52:21.585Z,6.60
2018-11-12T06:53:21.652Z,5.90
2018-11-12T06:54:21.638Z,13.20
2018-11-12T06:55:21.671Z,10.10
2018-11-12T06:56:21.694Z,5.70
2018-11-12T06:57:21.722Z,6.20
2018-11-12T06:58:21.749Z,12.50
2018-11-12T06:59:21.778Z,6.30
2018-11-12T07:00:21.806Z,5.50
2018-11-12T07:01:21.834Z,7.10
2018-11-12T07:02:21.863Z,4.10
2018-11-12T07:03:21.891Z,8.10
2018-11-12T07:04:21.922Z,4.00
2018-11-12T07:05:21.946Z,5.50
2018-11-12T07:06:21.980Z,3.90
2018-11-12T07:07:22.002Z,9.40
2018-11-12T07:08:22.031Z,5.30
2018-11-12T07:09:22.060Z,4.30
2018-11-12T07:10:22.085Z,4.70
2018-11-12T07:11:22.115Z,3.40
2018-11-12T07:12:22.142Z,3.60
2018-11-12T07:13:22.289Z,3.50
2018-11-12T07:14:22.199Z,3.70
2018-11-12T07:15:22.229Z,6.00
2018-11-12T07:16:22.269Z,8.00
2018-11-12T07:17:22.284Z,6.00
2018-11-12T07:18:22.313Z,4.10
2018-11-12T07:19:22.343Z,4.70
2018-11-12T07:20:22.372Z,4.00
2018-11-12T07:21:22.399Z,11.40
2018-11-12T07:22:22.427Z,5.30
2018-11-12T07:23:22.456Z,6.40
2018-11-12T07:24:22.485Z,3.70
2018-11-12T07:25:22.591Z,5.00
2018-11-12T07:26:22.544Z,3.60
2018-11-12T07:27:22.573Z,5.90
2018-11-12T07:28:22.601Z,5.80
2018-11-12T07:29:22.630Z,6.00
2018-11-12T07:30:22.658Z,7.70
2018-11-12T07:31:22.741Z,11.70
2018-11-12T07:32:22.718Z,6.90
2018-11-12T07:33:22.747Z,6.00
2018-11-12T07:34:22.775Z,8.30
2018-11-12T07:35:22.804Z,8.60
2018-11-12T07:36:22.832Z,6.10
2018-11-12T07:37:22.860Z,5.60
2018-11-12T07:38:22.892Z,5.60
2018-11-12T07:39:22.918Z,8.00
2018-11-12T07:40:22.945Z,7.90
2018-11-12T07:41:22.975Z,8.20
2018-11-12T07:42:23.005Z,6.80
2018-11-12T07:43:23.037Z,6.00
2018-11-12T07:44:23.061Z,7.20
2018-11-12T07:45:23.091Z,5.60
2018-11-12T07:46:23.121Z,5.50
2018-11-12T07:47:23.156Z,8.70
2018-11-12T07:48:23.179Z,5.10
2018-11-12T07:49:23.210Z,5.60
2018-11-12T07:50:23.239Z,9.50
2018-11-12T07:51:23.283Z,5.70
2018-11-12T07:52:23.304Z,7.10
2018-11-12T07:53:23.331Z,4.80
2018-11-12T07:54:23.415Z,4.20
2018-11-12T07:55:23.392Z,6.10
2018-11-12T07:56:23.499Z,6.80
2018-11-12T07:57:23.453Z,6.60
2018-11-12T07:58:23.484Z,7.60
2018-11-12T07:59:23.515Z,6.10
2018-11-12T08:00:23.546Z,4.90
2018-11-12T08:01:23.576Z,5.20
2018-11-12T08:02:23.608Z,8.40
2018-11-12T08:03:23.647Z,9.40
2018-11-12T08:04:23.668Z,7.30
2018-11-12T08:05:23.701Z,8.00
2018-11-12T08:06:23.733Z,4.50
2018-11-12T08:07:23.764Z,3.60
2018-11-12T08:08:23.796Z,9.20
2018-11-12T08:09:23.892Z,7.20
2018-11-12T08:10:23.860Z,4.60
2018-11-12T08:11:23.893Z,4.80
2018-11-12T08:12:23.925Z,5.30
2018-11-12T08:13:23.958Z,8.10
2018-11-12T08:14:24.031Z,9.70
2018-11-12T08:15:24.026Z,5.20
2018-11-12T08:16:24.056Z,6.00
2018-11-12T08:17:24.125Z,4.50
2018-11-12T08:18:24.123Z,7.70
2018-11-12T08:19:24.160Z,4.40
2018-11-12T08:20:24.190Z,4.00
2018-11-12T08:21:24.225Z,6.90
2018-11-12T08:22:24.259Z,4.10
2018-11-12T08:23:24.293Z,3.80
2018-11-12T08:24:24.452Z,6.70
2018-11-12T08:25:24.360Z,5.00
2018-11-12T08:26:24.396Z,7.10
2018-11-12T08:27:24.546Z,4.20
2018-11-12T08:28:24.464Z,5.50
2018-11-12T08:29:24.499Z,5.00
2018-11-12T08:30:24.624Z,5.60
2018-11-12T08:31:24.571Z,3.90
2018-11-12T08:32:24.605Z,4.40
2018-11-12T08:33:24.640Z,9.20
2018-11-12T08:34:24.675Z,3.90
2018-11-12T08:35:24.712Z,5.80
2018-11-12T08:36:24.820Z,4.70
2018-11-12T08:37:24.784Z,6.00
2018-11-12T08:38:24.821Z,4.70
2018-11-12T08:39:24.962Z,4.00
2018-11-12T08:40:24.981Z,2.70
2018-11-12T08:41:24.926Z,3.40
2018-11-12T08:42:24.968Z,2.70
2018-11-12T08:43:24.998Z,4.20
2018-11-12T08:44:25.035Z,6.70
2018-11-12T08:45:25.073Z,5.80
2018-11-12T08:46:25.108Z,5.00
2018-11-12T08:47:25.145Z,4.60
2018-11-12T08:48:25.266Z,3.50
2018-11-12T08:49:25.365Z,2.70
2018-11-12T08:50:25.255Z,3.70
2018-11-12T08:51:25.293Z,2.90
2018-11-12T08:52:25.329Z,5.10
2018-11-12T08:53:25.367Z,6.70
2018-11-12T08:54:25.408Z,2.40
2018-11-12T08:55:25.508Z,2.90
2018-11-12T08:56:25.475Z,2.30
2018-11-12T08:57:25.513Z,3.10
2018-11-12T08:58:25.550Z,3.80
2018-11-12T08:59:25.596Z,2.70
2018-11-12T09:00:25.624Z,2.80
2018-11-12T09:01:25.666Z,3.00
2018-11-12T09:02:25.701Z,3.70
2018-11-12T09:03:25.740Z,2.80
2018-11-12T09:04:25.776Z,3.10
2018-11-12T09:05:25.813Z,3.80
2018-11-12T09:06:25.853Z,5.50
2018-11-12T09:07:25.940Z,5.30
2018-11-12T09:08:25.929Z,3.70
2018-11-12T09:09:25.968Z,6.40
2018-11-12T09:10:26.008Z,2.60
2018-11-12T09:11:26.048Z,4.20
2018-11-12T09:12:26.085Z,2.70
2018-11-12T09:13:26.125Z,9.90
2018-11-12T09:14:26.166Z,5.70
2018-11-12T09:15:26.263Z,2.40
2018-11-12T09:16:26.244Z,2.90
2018-11-12T09:17:26.283Z,4.00
2018-11-12T09:18:26.326Z,5.40
2018-11-12T09:19:26.363Z,6.30
2018-11-12T09:20:26.436Z,3.00
2018-11-12T09:21:26.444Z,4.00
2018-11-12T09:22:26.483Z,2.60
2018-11-12T09:23:26.527Z,3.40
2018-11-12T09:24:26.638Z,5.30
2018-11-12T09:25:26.605Z,2.90
2018-11-12T09:26:26.644Z,4.00
2018-11-12T09:27:26.686Z,3.10
2018-11-12T09:28:26.726Z,4.20
2018-11-12T09:29:26.846Z,5.50
2018-11-12T09:30:26.807Z,5.80
2018-11-12T09:31:27.343Z,5.30
2018-11-12T09:32:26.908Z,2.70
2018-11-12T09:33:26.930Z,8.10
2018-11-12T09:34:26.972Z,3.40
2018-11-12T09:35:27.016Z,3.10
2018-11-12T09:36:27.057Z,2.10
2018-11-12T09:37:27.166Z,2.00
2018-11-12T09:38:27.192Z,1.90
2018-11-12T09:39:27.203Z,2.60
2018-11-12T09:40:27.222Z,1.70
2018-11-12T09:41:27.348Z,2.90
2018-11-12T09:42:27.328Z,2.80
2018-11-12T09:43:27.351Z,2.00
2018-11-12T09:44:27.392Z,3.10
2018-11-12T09:45:27.481Z,2.80
2018-11-12T09:46:27.477Z,3.30
2018-11-12T09:47:27.521Z,1.70
2018-11-12T09:48:27.561Z,3.50
2018-11-12T09:49:27.615Z,2.30
2018-11-12T09:50:27.646Z,1.60
2018-11-12T09:51:27.688Z,1.80
2018-11-12T09:52:27.731Z,1.80
2018-11-12T09:53:27.798Z,3.70
2018-11-12T09:54:27.943Z,10.70
2018-11-12T09:55:27.851Z,1.60
2018-11-12T09:56:27.892Z,10.80
2018-11-12T09:57:27.930Z,2.60
2018-11-12T09:58:27.971Z,2.90
2018-11-12T09:59:28.077Z,2.20
2018-11-12T10:00:28.196Z,5.70
2018-11-12T10:01:28.388Z,2.00
2018-11-12T10:02:28.911Z,5.00
2018-11-12T10:03:28.741Z,1.50
2018-11-12T10:04:29.334Z,5.30
2018-11-12T10:05:29.575Z,2.60
2018-11-12T10:06:29.538Z,2.20
2018-11-12T10:07:30.037Z,2.00
2018-11-12T10:08:30.308Z,4.50
2018-11-12T10:09:29.878Z,2.40
2018-11-12T10:10:31.350Z,2.50
2018-11-12T10:11:30.592Z,2.30
2018-11-12T10:12:32.023Z,3.10
2018-11-12T10:13:30.965Z,2.30
2018-11-12T10:14:31.143Z,4.00
2018-11-12T10:15:32.516Z,3.00
2018-11-12T10:16:32.382Z,4.80
2018-11-12T10:17:31.556Z,3.20
2018-11-12T10:18:28.738Z,2.50
2018-11-12T10:19:28.811Z,3.00
2018-11-12T10:20:28.810Z,4.30
2018-11-12T10:21:28.848Z,5.60
2018-11-12T10:22:28.885Z,2.10
2018-11-12T10:23:28.922Z,3.10
2018-11-12T10:24:28.959Z,3.10
2018-11-12T10:25:28.995Z,3.70
2018-11-12T10:26:29.083Z,4.40
2018-11-12T10:27:29.071Z,2.60
2018-11-12T10:28:29.111Z,2.60
2018-11-12T10:29:29.145Z,3.20
2018-11-12T10:30:29.182Z,4.70
2018-11-12T10:31:29.217Z,4.20
2018-11-12T10:32:29.254Z,2.70
2018-11-12T10:33:29.291Z,2.60
2018-11-12T10:34:29.329Z,2.80
2018-11-12T10:35:29.365Z,3.40
2018-11-12T10:36:29.401Z,2.60
2018-11-12T10:37:29.439Z,2.60
2018-11-12T10:38:29.477Z,3.70
2018-11-12T10:39:29.513Z,3.10
2018-11-12T10:40:29.549Z,3.20
2018-11-12T10:41:29.587Z,2.40
2018-11-12T10:42:29.628Z,4.30
2018-11-12T10:43:29.661Z,4.70
2018-11-12T10:44:29.698Z,3.60
2018-11-12T10:45:29.733Z,4.60
2018-11-12T10:46:29.771Z,4.10
2018-11-12T10:47:29.809Z,4.10
2018-11-12T10:48:29.921Z,2.70
2018-11-12T10:49:29.880Z,4.90
2018-11-12T10:50:29.923Z,5.50
2018-11-12T10:51:29.981Z,2.80
2018-11-12T10:52:29.992Z,3.90
2018-11-12T10:53:30.031Z,2.80
2018-11-12T10:54:30.171Z,7.00
2018-11-12T10:55:30.361Z,2.40
2018-11-12T10:56:30.137Z,2.30
2018-11-12T10:57:30.175Z,4.50
2018-11-12T10:58:30.339Z,3.90
2018-11-12T10:59:30.278Z,2.50
2018-11-12T11:00:30.288Z,4.40
2018-11-12T11:01:30.320Z,4.40
2018-11-12T11:02:30.357Z,3.80
2018-11-12T11:03:30.393Z,3.10
2018-11-12T11:04:30.428Z,3.20
2018-11-12T11:05:30.469Z,6.70
2018-11-12T11:06:30.502Z,2.90
2018-11-12T11:07:30.540Z,4.10
2018-11-12T11:08:30.573Z,2.60
2018-11-12T11:09:30.610Z,5.70
2018-11-12T11:10:30.647Z,4.40
2018-11-12T11:11:30.682Z,6.00
2018-11-12T11:12:30.716Z,6.10
2018-11-12T11:13:30.753Z,4.20
2018-11-12T11:14:30.790Z,2.90
2018-11-12T11:15:30.849Z,6.00
2018-11-12T11:16:30.860Z,3.80
2018-11-12T11:17:30.895Z,3.10
2018-11-12T11:18:30.931Z,5.60
2018-11-12T11:19:31.004Z,1.90
2018-11-12T11:20:31.002Z,2.00
2018-11-12T11:21:31.039Z,3.30
2018-11-12T11:22:31.073Z,4.10
2018-11-12T11:23:31.111Z,5.80
2018-11-12T11:24:31.144Z,3.60
2018-11-12T11:25:31.186Z,5.00
2018-11-12T11:26:31.238Z,3.60
2018-11-12T11:27:31.249Z,2.50
2018-11-12T11:28:31.284Z,3.80
2018-11-12T11:29:31.362Z,6.60
2018-11-12T11:30:31.371Z,3.10
2018-11-12T11:31:31.391Z,5.70
2018-11-12T11:32:31.424Z,5.10
2018-11-12T11:33:31.459Z,1.50
2018-11-12T11:34:31.495Z,2.60
2018-11-12T11:35:31.530Z,2.90
2018-11-12T11:36:31.566Z,1.90
2018-11-12T11:37:31.599Z,2.10
2018-11-12T11:38:31.635Z,1.70
2018-11-12T11:39:31.670Z,1.80
2018-11-12T11:40:31.731Z,7.10
2018-11-12T11:41:31.740Z,7.90
2018-11-12T11:42:31.776Z,11.00
2018-11-12T11:43:31.811Z,4.80
2018-11-12T11:44:31.845Z,3.30
2018-11-12T11:45:31.879Z,1.70
2018-11-12T11:46:31.918Z,4.30
2018-11-12T11:47:32.153Z,2.60
2018-11-12T11:48:31.984Z,3.60
2018-11-12T11:49:32.021Z,5.80
2018-11-12T11:50:32.111Z,3.20
2018-11-12T11:51:32.095Z,3.50
2018-11-12T11:52:32.125Z,5.00
2018-11-12T11:53:32.161Z,1.50
2018-11-12T11:54:32.196Z,5.80
2018-11-12T11:55:32.235Z,4.40
2018-11-12T11:56:32.388Z,6.90
2018-11-12T11:57:32.500Z,3.60
2018-11-12T11:58:32.362Z,5.80
2018-11-12T11:59:32.410Z,6.60
2018-11-12T12:00:32.411Z,2.30
2018-11-12T12:01:32.461Z,2.10
2018-11-12T12:02:32.480Z,5.90
2018-11-12T12:03:32.515Z,5.30
2018-11-12T12:04:32.549Z,3.40
2018-11-12T12:05:32.590Z,4.20
2018-11-12T12:06:32.622Z,9.40
2018-11-12T12:07:32.656Z,3.80
2018-11-12T12:08:32.744Z,4.00
2018-11-12T12:09:32.727Z,4.30
2018-11-12T12:10:32.763Z,3.20
2018-11-12T12:11:32.799Z,6.00
2018-11-12T12:12:32.832Z,7.30
2018-11-12T12:13:32.874Z,3.80
2018-11-12T12:14:32.905Z,6.10
2018-11-12T12:15:32.943Z,19.80
2018-11-12T12:16:32.974Z,62.00
2018-11-12T12:17:33.052Z,118.90
2018-11-12T12:18:33.061Z,103.80
2018-11-12T12:19:33.092Z,38.50
2018-11-12T12:20:33.117Z,28.50
2018-11-12T12:21:33.153Z,13.30
2018-11-12T12:22:33.189Z,10.70
2018-11-12T12:23:33.230Z,7.30
2018-11-12T12:24:33.320Z,6.30
2018-11-12T12:25:33.478Z,9.20
2018-11-12T12:26:33.355Z,5.40
2018-11-12T12:27:33.372Z,8.40
2018-11-12T12:28:33.404Z,6.50
2018-11-12T12:29:33.441Z,9.70
2018-11-12T12:30:33.477Z,9.00
2018-11-12T12:31:33.512Z,11.10
2018-11-12T12:32:33.554Z,23.70
2018-11-12T12:33:33.585Z,37.30
2018-11-12T12:34:33.622Z,28.90
2018-11-12T12:35:33.715Z,30.70
2018-11-12T12:36:33.722Z,29.50
2018-11-12T12:37:33.762Z,25.20
2018-11-12T12:38:33.762Z,8.40
2018-11-12T12:39:33.800Z,9.30
2018-11-12T12:40:33.832Z,11.70
2018-11-12T12:41:33.868Z,7.00
2018-11-12T12:42:33.904Z,8.10
2018-11-12T12:43:33.940Z,17.80
2018-11-12T12:44:33.982Z,7.30
2018-11-12T12:45:34.161Z,10.10
2018-11-12T12:46:34.046Z,7.60
2018-11-12T12:47:34.083Z,8.10
2018-11-12T12:48:34.119Z,5.80
2018-11-12T12:49:34.208Z,9.40
2018-11-12T12:50:34.238Z,4.70
2018-11-12T12:51:34.282Z,6.90
2018-11-12T12:52:34.259Z,5.90
2018-11-12T12:53:34.296Z,5.40
2018-11-12T12:54:34.330Z,5.80
2018-11-12T12:55:34.507Z,4.50
2018-11-12T12:56:34.454Z,3.40
2018-11-12T12:57:34.437Z,3.00
2018-11-12T12:58:34.475Z,5.10
2018-11-12T12:59:34.510Z,2.60
2018-11-12T13:00:34.545Z,4.50
2018-11-12T13:01:34.624Z,5.10
2018-11-12T13:02:34.641Z,3.40
2018-11-12T13:03:34.654Z,7.10
2018-11-12T13:04:34.691Z,5.50
2018-11-12T13:05:34.727Z,5.70
2018-11-12T13:06:34.795Z,6.90
2018-11-12T13:07:34.866Z,8.60
2018-11-12T13:08:34.838Z,5.10
2018-11-12T13:09:34.876Z,8.40
2018-11-12T13:10:34.915Z,5.70
2018-11-12T13:11:35.002Z,6.70
2018-11-12T13:12:34.989Z,4.60
2018-11-12T13:13:35.035Z,9.40
2018-11-12T13:14:35.236Z,6.00
2018-11-12T13:15:35.101Z,9.80
2018-11-12T13:16:35.137Z,6.70